Time;durP1;ratioP1;P1;durP2;ratioP2;P2;SDS_P1;SDS_P2;PMS_P1;PMS_P2;Temp;Humidity;BMP_temperature;BMP_pressure;BME280_temperature;BME280_humidity;BME280_pressure;Samples;Min_cycle;Max_cycle;Signal;HPM_P1;HPM_P2
2021/03/10 00:00:00;;;;;;;15.43;8.35;;;8.60;35.40;;;;;;5036309;28;20072;-68
2021/03/10 00:02:26;;;;;;;16.13;9.48;;;8.60;35.40;;;;;;5036122;28;20025;-68
2021/03/10 00:04:52;;;;;;;15.93;9.50;;;8.60;35.40;;;;;;5036169;28;20022;-69
2021/03/10 00:07:18;;;;;;;17.60;9.80;;;8.60;35.50;;;;;;5036724;28;20028;-68
2021/03/10 00:09:43;;;;;;;24.38;10.40;;;8.60;35.40;;;;;;5035692;28;20057;-68
2021/03/10 00:12:09;;;;;;;14.85;9.27;;;8.50;35.30;;;;;;5033642;28;20018;-68
2021/03/10 00:14:35;;;;;;;19.92;11.20;;;8.60;35.40;;;;;;5032184;28;20094;-68
2021/03/10 00:17:01;;;;;;;16.08;9.82;;;8.50;35.20;;;;;;5034509;28;20546;-68
2021/03/10 00:19:27;;;;;;;16.25;9.30;;;8.50;35.10;;;;;;5035657;28;20483;-68
2021/03/10 00:21:53;;;;;;;19.08;10.88;;;8.50;35.10;;;;;;5036548;28;20034;-68
2021/03/10 00:24:18;;;;;;;18.67;10.50;;;8.40;35.10;;;;;;5036459;28;20036;-69
2021/03/10 00:26:44;;;;;;;21.63;11.38;;;8.40;35.10;;;;;;5036728;28;20025;-68
2021/03/10 00:29:11;;;;;;;21.75;11.65;;;8.30;35.10;;;;;;5036305;28;20029;-68
2021/03/10 00:31:36;;;;;;;20.23;11.90;;;8.20;35.20;;;;;;5036269;28;20083;-69
2021/03/10 00:34:02;;;;;;;18.23;11.00;;;8.10;35.20;;;;;;5031911;28;20068;-68
2021/03/10 00:36:28;;;;;;;18.50;10.90;;;8.10;35.30;;;;;;5036291;28;20075;-69
2021/03/10 00:38:54;;;;;;;21.20;10.93;;;8.00;35.40;;;;;;5018534;28;20036;-68
2021/03/10 00:41:19;;;;;;;20.60;11.60;;;7.90;35.60;;;;;;5036189;28;20087;-68
2021/03/10 00:43:45;;;;;;;17.77;10.07;;;7.80;35.60;;;;;;5017274;28;20036;-68
2021/03/10 00:46:11;;;;;;;17.17;9.60;;;7.80;35.70;;;;;;5020442;28;20033;-68
2021/03/10 00:48:37;;;;;;;21.65;11.48;;;7.70;35.90;;;;;;5035127;28;20036;-68
2021/03/10 00:51:02;;;;;;;18.23;10.07;;;7.70;36.10;;;;;;5035004;28;20018;-68
2021/03/10 00:53:28;;;;;;;18.25;9.82;;;7.70;36.20;;;;;;5035082;28;20038;-68
2021/03/10 00:55:54;;;;;;;18.50;9.50;;;7.70;36.40;;;;;;5034879;28;20072;-68
2021/03/10 00:58:20;;;;;;;15.02;8.50;;;7.60;36.50;;;;;;5034043;28;20026;-68
2021/03/10 01:00:45;;;;;;;19.25;10.30;;;7.60;36.50;;;;;;5017029;28;20057;-68
2021/03/10 01:03:11;;;;;;;17.42;9.68;;;7.60;36.70;;;;;;5034837;28;20053;-68
2021/03/10 01:05:37;;;;;;;15.88;9.07;;;7.60;36.80;;;;;;5034053;28;20080;-69
2021/03/10 01:08:04;;;;;;;18.08;9.65;;;7.60;36.90;;;;;;5034772;28;20033;-68
2021/03/10 01:10:29;;;;;;;18.92;10.05;;;7.60;37.10;;;;;;5033443;28;20041;-68
2021/03/10 01:12:56;;;;;;;14.00;7.80;;;7.60;37.30;;;;;;5034652;28;20471;-69
2021/03/10 01:15:22;;;;;;;16.10;8.88;;;7.60;37.30;;;;;;5034372;28;20029;-68
2021/03/10 01:17:48;;;;;;;20.45;9.95;;;7.60;37.40;;;;;;5034549;28;20144;-68
2021/03/10 01:20:21;;;;;;;21.88;10.70;;;7.60;37.60;;;;;;5034520;28;20104;-68
2021/03/10 01:22:47;;;;;;;17.98;10.73;;;7.60;38.00;;;;;;5016740;28;20022;-68
2021/03/10 01:25:14;;;;;;;16.55;10.15;;;7.50;38.20;;;;;;5034558;28;20025;-68
2021/03/10 01:27:39;;;;;;;15.63;9.63;;;7.60;38.30;;;;;;5033021;28;20024;-68
2021/03/10 01:30:08;;;;;;;23.50;10.00;;;7.50;38.30;;;;;;5034066;28;20375;-68
2021/03/10 01:32:34;;;;;;;21.88;11.15;;;7.50;38.70;;;;;;5020050;28;20037;-68
2021/03/10 01:35:00;;;;;;;21.08;11.00;;;7.50;39.10;;;;;;5014520;28;20033;-68
2021/03/10 01:37:26;;;;;;;17.75;9.73;;;7.50;39.20;;;;;;5019330;28;20021;-68
2021/03/10 01:39:52;;;;;;;17.50;9.90;;;7.50;39.20;;;;;;5034027;28;20026;-68
2021/03/10 01:42:18;;;;;;;19.33;10.50;;;7.50;39.60;;;;;;5034220;28;20021;-68
2021/03/10 01:44:43;;;;;;;21.52;10.65;;;7.50;39.50;;;;;;5034023;28;20044;-68
2021/03/10 01:47:09;;;;;;;20.30;11.52;;;7.50;39.80;;;;;;5033643;28;20063;-68
2021/03/10 01:49:36;;;;;;;20.55;10.85;;;7.50;40.00;;;;;;5033018;28;20025;-68
2021/03/10 01:52:01;;;;;;;16.70;10.77;;;7.50;40.00;;;;;;5034092;28;20489;-68
2021/03/10 01:54:27;;;;;;;18.95;11.27;;;7.50;40.00;;;;;;5033579;28;20029;-68
2021/03/10 01:56:53;;;;;;;20.27;11.02;;;7.40;40.10;;;;;;5033774;28;20479;-68
2021/03/10 01:59:20;;;;;;;22.33;11.02;;;7.40;40.30;;;;;;5033785;28;20056;-68
2021/03/10 02:01:46;;;;;;;18.85;11.60;;;7.40;40.30;;;;;;5033957;28;20021;-68
2021/03/10 02:04:12;;;;;;;23.17;10.88;;;7.40;40.50;;;;;;5033701;28;20422;-68
2021/03/10 02:07:16;;;;;;;22.25;11.55;;;7.40;40.60;;;;;;5033659;28;20060;-69
2021/03/10 02:10:08;;;;;;;22.90;11.27;;;7.40;40.70;;;;;;5033480;28;20540;-68
2021/03/10 02:12:48;;;;;;;24.58;10.70;;;7.30;40.70;;;;;;5029762;28;20108;-69
2021/03/10 02:15:27;;;;;;;17.23;9.95;;;7.40;40.50;;;;;;5013376;28;20025;-69
2021/03/10 02:17:57;;;;;;;19.48;10.07;;;7.40;40.60;;;;;;5011831;28;20409;-68
2021/03/10 02:20:31;;;;;;;16.75;9.38;;;7.40;40.50;;;;;;5029915;28;20029;-69
2021/03/10 02:23:18;;;;;;;18.17;9.80;;;7.40;40.40;;;;;;5033222;28;20100;-68
2021/03/10 02:25:49;;;;;;;20.58;11.00;;;7.50;40.40;;;;;;5032498;28;20029;-68
2021/03/10 02:28:15;;;;;;;18.45;10.05;;;7.50;40.50;;;;;;5033233;28;20486;-68
2021/03/10 02:30:44;;;;;;;14.65;8.85;;;7.50;40.60;;;;;;5033270;28;20048;-68
2021/03/10 02:33:30;;;;;;;15.75;8.50;;;7.50;40.50;;;;;;5033135;28;20479;-68
2021/03/10 02:36:06;;;;;;;13.75;9.00;;;7.60;40.50;;;;;;5030974;28;20156;-68
2021/03/10 02:38:32;;;;;;;17.45;9.82;;;7.60;40.50;;;;;;5031466;28;20033;-68
2021/03/10 02:40:58;;;;;;;19.58;9.52;;;7.60;40.50;;;;;;5015286;28;20037;-68
2021/03/10 02:43:25;;;;;;;15.68;8.77;;;7.60;40.50;;;;;;5032911;28;20036;-68
2021/03/10 02:45:53;;;;;;;16.45;10.23;;;7.60;40.50;;;;;;5032676;28;20029;-68
2021/03/10 02:48:19;;;;;;;20.35;11.35;;;7.60;40.70;;;;;;5032487;28;20033;-68
2021/03/10 02:50:47;;;;;;;17.15;9.73;;;7.60;40.90;;;;;;5032602;28;20034;-68
2021/03/10 02:53:13;;;;;;;21.75;11.57;;;7.60;40.90;;;;;;5023631;28;20455;-69
2021/03/10 02:55:40;;;;;;;18.52;10.60;;;7.60;41.10;;;;;;5032727;28;20037;-68
2021/03/10 02:58:09;;;;;;;18.15;10.93;;;7.60;41.10;;;;;;5032667;28;20021;-68
2021/03/10 03:00:36;;;;;;;21.58;10.27;;;7.60;41.40;;;;;;5011534;28;20060;-69
2021/03/10 03:03:03;;;;;;;16.15;9.75;;;7.60;41.40;;;;;;5012783;28;20046;-68
2021/03/10 03:05:30;;;;;;;20.63;10.07;;;7.60;41.20;;;;;;5012847;28;20025;-69
2021/03/10 03:08:40;;;;;;;16.45;9.52;;;7.60;41.30;;;;;;5012716;28;20044;-68
2021/03/10 03:11:07;;;;;;;15.20;8.52;;;7.60;41.30;;;;;;5011973;28;20053;-68
2021/03/10 03:13:34;;;;;;;17.00;10.55;;;7.60;41.00;;;;;;5012248;28;20040;-68
2021/03/10 03:16:04;;;;;;;17.70;9.80;;;7.70;41.00;;;;;;5012725;28;20018;-68
2021/03/10 03:18:30;;;;;;;18.38;9.48;;;7.70;40.90;;;;;;5000323;28;20034;-69
2021/03/10 03:21:00;;;;;;;16.77;9.80;;;7.70;40.90;;;;;;4993072;28;20036;-68
2021/03/10 03:23:26;;;;;;;15.68;9.70;;;7.70;40.90;;;;;;4993042;28;20119;-68
2021/03/10 03:25:54;;;;;;;19.60;9.82;;;7.70;40.90;;;;;;4992968;28;20025;-68
2021/03/10 03:28:23;;;;;;;17.65;10.70;;;7.70;40.90;;;;;;4997919;28;20022;-68
2021/03/10 03:30:51;;;;;;;18.45;10.57;;;7.70;40.90;;;;;;5012424;28;20026;-68
2021/03/10 03:33:20;;;;;;;16.30;9.45;;;7.70;40.90;;;;;;4992889;28;20048;-68
2021/03/10 03:35:52;;;;;;;17.23;9.65;;;7.70;40.90;;;;;;5007130;28;20080;-68
2021/03/10 03:38:23;;;;;;;16.70;9.38;;;7.70;40.90;;;;;;5012089;28;20477;-68
2021/03/10 03:40:51;;;;;;;18.13;10.45;;;7.70;40.90;;;;;;5005215;28;20030;-69
2021/03/10 03:43:17;;;;;;;18.15;10.10;;;7.70;41.00;;;;;;5012403;28;20038;-69
2021/03/10 03:45:44;;;;;;;16.58;9.88;;;7.70;41.30;;;;;;5012538;28;20472;-69
2021/03/10 03:48:10;;;;;;;21.95;10.20;;;7.80;41.20;;;;;;5011774;28;20438;-68
2021/03/10 03:50:36;;;;;;;19.73;10.35;;;7.80;41.40;;;;;;5010976;28;20384;-69
2021/03/10 03:53:02;;;;;;;16.52;9.57;;;7.80;41.60;;;;;;5013088;28;20029;-68
2021/03/10 03:55:28;;;;;;;20.65;10.00;;;7.80;41.50;;;;;;5013264;28;20022;-69
2021/03/10 03:57:53;;;;;;;19.25;10.57;;;7.80;41.60;;;;;;5008481;28;20025;-69
2021/03/10 04:00:23;;;;;;;18.95;10.68;;;7.80;41.70;;;;;;5023753;28;20080;-68
2021/03/10 04:02:49;;;;;;;18.20;10.63;;;7.70;41.70;;;;;;5032474;28;20391;-69
2021/03/10 04:05:19;;;;;;;20.33;10.82;;;7.80;41.90;;;;;;5032846;28;20028;-68
2021/03/10 04:07:58;;;;;;;15.18;9.70;;;7.70;42.10;;;;;;5032845;28;20033;-69
2021/03/10 04:10:24;;;;;;;17.33;10.10;;;7.70;42.30;;;;;;5032841;28;20116;-68
2021/03/10 04:12:50;;;;;;;21.42;11.45;;;7.70;42.50;;;;;;5013240;28;20147;-68
2021/03/10 04:15:17;;;;;;;15.68;9.10;;;7.70;42.60;;;;;;5032578;28;20025;-68
2021/03/10 04:17:42;;;;;;;17.77;10.15;;;7.70;42.50;;;;;;5031637;28;20028;-68
2021/03/10 04:20:11;;;;;;;21.00;11.05;;;7.70;42.80;;;;;;5032430;28;20104;-68
2021/03/10 04:22:37;;;;;;;18.05;11.27;;;7.70;43.00;;;;;;5032238;28;20026;-68
2021/03/10 04:25:05;;;;;;;18.20;11.02;;;7.60;43.10;;;;;;5032542;28;20426;-69
2021/03/10 04:27:31;;;;;;;19.67;10.55;;;7.60;43.10;;;;;;5020780;28;20025;-69
2021/03/10 04:29:57;;;;;;;20.23;11.23;;;7.60;43.10;;;;;;5032363;28;20037;-68
2021/03/10 04:32:23;;;;;;;18.95;10.85;;;7.60;43.20;;;;;;5032369;28;20025;-68
2021/03/10 04:34:49;;;;;;;19.98;10.82;;;7.60;43.10;;;;;;5031875;28;20028;-68
2021/03/10 04:37:15;;;;;;;22.30;11.20;;;7.60;43.30;;;;;;5032433;28;20097;-68
2021/03/10 04:39:41;;;;;;;18.40;11.13;;;7.60;43.40;;;;;;5031287;28;20021;-69
2021/03/10 04:42:07;;;;;;;17.85;10.07;;;7.60;43.40;;;;;;5035885;28;20041;-69
2021/03/10 04:44:33;;;;;;;19.30;11.10;;;7.60;43.30;;;;;;5036003;28;20025;-69
2021/03/10 04:46:58;;;;;;;18.17;10.90;;;7.60;43.60;;;;;;5035932;28;20432;-68
2021/03/10 04:49:24;;;;;;;22.15;11.35;;;7.60;44.00;;;;;;5035682;28;20026;-68
2021/03/10 04:51:50;;;;;;;19.42;10.82;;;7.60;44.10;;;;;;5035611;28;20033;-68
2021/03/10 04:54:16;;;;;;;19.42;11.00;;;7.60;44.10;;;;;;5035626;28;20033;-69
2021/03/10 04:56:41;;;;;;;25.40;12.07;;;7.60;44.20;;;;;;5034310;28;20038;-69
2021/03/10 04:59:07;;;;;;;20.83;11.07;;;7.60;44.20;;;;;;5035626;28;20431;-69
2021/03/10 05:01:33;;;;;;;23.05;11.60;;;7.60;44.30;;;;;;5035902;28;20033;-68
2021/03/10 05:03:58;;;;;;;19.17;11.40;;;7.60;44.50;;;;;;5035576;28;20039;-69
2021/03/10 05:06:24;;;;;;;18.15;10.75;;;7.60;44.50;;;;;;5035434;28;20036;-68
2021/03/10 05:08:50;;;;;;;21.13;12.18;;;7.60;44.70;;;;;;5035653;28;20364;-68
2021/03/10 05:11:16;;;;;;;18.13;10.88;;;7.60;45.00;;;;;;5035787;28;20025;-69
2021/03/10 05:13:41;;;;;;;21.58;11.52;;;7.60;45.00;;;;;;5035451;28;20417;-69
2021/03/10 05:16:07;;;;;;;21.52;12.18;;;7.60;45.00;;;;;;5024985;28;20049;-68
2021/03/10 05:18:33;;;;;;;22.20;11.93;;;7.60;45.20;;;;;;5034697;28;20034;-68
2021/03/10 05:20:59;;;;;;;19.60;11.63;;;7.60;45.20;;;;;;5035525;28;20030;-69
2021/03/10 05:23:24;;;;;;;24.15;12.55;;;7.60;45.30;;;;;;5034983;28;20525;-68
2021/03/10 05:25:50;;;;;;;20.80;11.35;;;7.60;45.50;;;;;;5035306;28;20024;-68
2021/03/10 05:28:16;;;;;;;21.30;12.43;;;7.60;45.50;;;;;;5035090;28;20083;-68
2021/03/10 05:30:41;;;;;;;21.35;11.93;;;7.60;45.80;;;;;;5035264;28;20022;-68
2021/03/10 05:33:07;;;;;;;22.77;12.23;;;7.60;46.00;;;;;;5035138;28;20030;-68
2021/03/10 05:35:33;;;;;;;22.35;11.93;;;7.60;46.20;;;;;;5034961;28;20033;-68
2021/03/10 05:37:59;;;;;;;21.10;11.30;;;7.60;46.30;;;;;;5034861;28;20033;-68
2021/03/10 05:40:25;;;;;;;19.05;11.07;;;7.60;46.20;;;;;;5035079;28;20028;-68
2021/03/10 05:42:51;;;;;;;22.52;12.50;;;7.60;46.30;;;;;;5034085;28;20053;-68
2021/03/10 05:45:17;;;;;;;23.75;13.25;;;7.60;46.70;;;;;;5034772;28;20029;-69
2021/03/10 05:47:43;;;;;;;23.73;12.93;;;7.60;47.00;;;;;;5034893;28;20032;-68
2021/03/10 05:50:09;;;;;;;23.25;12.90;;;7.60;47.40;;;;;;5034835;28;20029;-68
2021/03/10 05:52:37;;;;;;;27.45;13.35;;;7.50;47.30;;;;;;5034671;28;20026;-69
2021/03/10 05:55:06;;;;;;;18.67;11.45;;;7.60;47.70;;;;;;5033151;28;20104;-68
2021/03/10 05:57:32;;;;;;;16.67;10.55;;;7.60;47.80;;;;;;5016831;28;20047;-69
2021/03/10 05:59:57;;;;;;;24.15;13.07;;;7.60;47.60;;;;;;5034279;28;20120;-69
2021/03/10 06:02:24;;;;;;;22.98;13.07;;;7.60;48.10;;;;;;5034724;28;20124;-68
2021/03/10 06:04:49;;;;;;;24.02;13.05;;;7.60;48.30;;;;;;5034649;28;20025;-68
2021/03/10 06:07:22;;;;;;;26.83;12.57;;;7.60;48.40;;;;;;5034095;28;20032;-68
2021/03/10 06:10:03;;;;;;;22.05;13.35;;;7.50;48.40;;;;;;5034611;28;20030;-68
2021/03/10 06:12:43;;;;;;;25.77;12.82;;;7.60;48.60;;;;;;5033681;28;20036;-68
2021/03/10 06:15:11;;;;;;;21.33;13.23;;;7.60;48.70;;;;;;5034237;28;20033;-68
2021/03/10 06:17:49;;;;;;;23.40;13.98;;;7.60;48.70;;;;;;5034400;28;20021;-68
2021/03/10 06:20:31;;;;;;;23.48;13.38;;;7.60;48.90;;;;;;5016580;28;20021;-68
2021/03/10 06:22:57;;;;;;;25.42;13.40;;;7.60;48.80;;;;;;5016847;28;20464;-68
2021/03/10 06:25:24;;;;;;;20.13;12.45;;;7.60;48.80;;;;;;5034263;28;20068;-68
2021/03/10 06:27:55;;;;;;;24.00;13.00;;;7.60;48.80;;;;;;5015728;28;20068;-68
2021/03/10 06:30:41;;;;;;;24.08;13.63;;;7.60;48.90;;;;;;5034111;28;20506;-68
2021/03/10 06:33:07;;;;;;;26.63;14.20;;;7.60;49.00;;;;;;5026767;28;20417;-68
2021/03/10 06:35:34;;;;;;;26.35;14.10;;;7.60;49.20;;;;;;5034123;28;20418;-68
2021/03/10 06:38:11;;;;;;;27.08;15.13;;;7.60;49.40;;;;;;5033914;28;20013;-68
2021/03/10 06:40:58;;;;;;;31.27;15.52;;;7.60;49.70;;;;;;5016063;28;20447;-68
2021/03/10 06:43:38;;;;;;;28.80;13.75;;;7.60;49.80;;;;;;5032835;28;20025;-68
2021/03/10 06:46:14;;;;;;;20.88;12.15;;;7.60;49.80;;;;;;5033530;28;20528;-68
2021/03/10 06:48:52;;;;;;;23.60;14.10;;;7.70;49.90;;;;;;5033025;28;20030;-68
2021/03/10 06:51:19;;;;;;;27.02;15.05;;;7.70;50.20;;;;;;5033548;28;20025;-68
2021/03/10 06:53:45;;;;;;;26.85;15.75;;;7.70;50.20;;;;;;5033466;28;20045;-68
2021/03/10 06:56:29;;;;;;;22.77;13.48;;;7.70;50.10;;;;;;5033400;28;20057;-68
2021/03/10 06:58:59;;;;;;;24.05;14.18;;;7.70;50.10;;;;;;5033307;28;20487;-68
2021/03/10 07:01:42;;;;;;;27.80;15.23;;;7.60;50.00;;;;;;5032108;28;20045;-68
2021/03/10 07:04:13;;;;;;;27.08;14.35;;;7.60;50.10;;;;;;5031466;28;20120;-68
2021/03/10 07:06:39;;;;;;;21.67;13.40;;;7.60;50.30;;;;;;5033573;28;20034;-68
2021/03/10 07:09:13;;;;;;;24.75;13.95;;;7.50;50.30;;;;;;5033393;28;20364;-68
2021/03/10 07:11:42;;;;;;;21.55;12.75;;;7.50;50.50;;;;;;5030782;28;20103;-68
2021/03/10 07:14:11;;;;;;;24.83;13.20;;;7.60;50.30;;;;;;5013568;28;20025;-68
2021/03/10 07:16:37;;;;;;;24.67;13.77;;;7.50;50.50;;;;;;5012137;28;20032;-69
2021/03/10 07:19:09;;;;;;;20.15;11.95;;;7.60;50.60;;;;;;5013542;28;20483;-68
2021/03/10 07:21:51;;;;;;;19.45;12.00;;;7.60;50.70;;;;;;5013530;28;20114;-69
2021/03/10 07:24:40;;;;;;;20.40;12.75;;;7.60;51.00;;;;;;5013213;28;20022;-68
2021/03/10 07:27:09;;;;;;;20.95;11.63;;;7.60;51.00;;;;;;5012687;28;20057;-68
2021/03/10 07:29:40;;;;;;;31.17;18.38;;;7.60;51.00;;;;;;5013065;28;20075;-68
2021/03/10 07:32:07;;;;;;;31.70;16.95;;;7.60;51.50;;;;;;5013633;28;20018;-68
2021/03/10 07:34:35;;;;;;;24.58;14.18;;;7.60;51.50;;;;;;5013290;28;20026;-69
2021/03/10 07:37:15;;;;;;;32.25;18.45;;;7.60;51.60;;;;;;5013250;28;20022;-68
2021/03/10 07:39:42;;;;;;;34.65;19.33;;;7.60;51.70;;;;;;5013186;28;20479;-68
2021/03/10 07:42:17;;;;;;;27.77;15.55;;;7.60;51.80;;;;;;5017867;28;20030;-68
2021/03/10 07:44:55;;;;;;;37.55;19.73;;;7.60;51.90;;;;;;5031893;28;20056;-68
2021/03/10 07:47:20;;;;;;;35.47;19.00;;;7.60;52.10;;;;;;5031614;28;20033;-68
2021/03/10 07:50:00;;;;;;;28.02;15.48;;;7.60;51.90;;;;;;5031650;28;20030;-68
2021/03/10 07:52:28;;;;;;;36.03;19.95;;;7.60;52.30;;;;;;5031948;28;20048;-69
2021/03/10 07:55:03;;;;;;;31.02;17.92;;;7.70;52.30;;;;;;5031645;28;20024;-69
2021/03/10 07:57:29;;;;;;;29.30;16.05;;;7.70;52.40;;;;;;5013391;28;20091;-68
2021/03/10 07:59:59;;;;;;;24.48;14.63;;;7.70;52.20;;;;;;5031749;28;20054;-68
2021/03/10 08:02:27;;;;;;;21.90;13.50;;;7.80;52.40;;;;;;5031540;28;20091;-69
2021/03/10 08:04:58;;;;;;;31.58;16.33;;;7.80;52.20;;;;;;5031450;28;20033;-68
2021/03/10 08:07:26;;;;;;;24.67;15.00;;;7.90;52.40;;;;;;5031524;28;20034;-69
2021/03/10 08:09:53;;;;;;;28.05;14.93;;;7.90;52.20;;;;;;5031581;28;20018;-68
2021/03/10 08:12:31;;;;;;;32.55;15.40;;;7.90;52.00;;;;;;5031712;28;20105;-68
2021/03/10 08:14:58;;;;;;;32.47;19.15;;;8.00;52.30;;;;;;5032313;28;20033;-68
2021/03/10 08:17:26;;;;;;;29.83;16.50;;;8.00;52.20;;;;;;5036738;28;20079;-67
2021/03/10 08:19:58;;;;;;;29.88;15.90;;;8.00;52.00;;;;;;5035671;28;20032;-68
2021/03/10 08:22:26;;;;;;;28.98;15.15;;;8.00;51.80;;;;;;5036007;28;20033;-68
2021/03/10 08:24:57;;;;;;;25.58;14.40;;;8.00;51.80;;;;;;5035681;28;20026;-68
2021/03/10 08:27:31;;;;;;;24.00;15.30;;;8.00;51.90;;;;;;5035355;28;20049;-68
2021/03/10 08:29:58;;;;;;;31.98;17.52;;;8.00;52.00;;;;;;5035405;28;20055;-68
2021/03/10 08:32:30;;;;;;;33.35;17.00;;;8.00;52.20;;;;;;5035262;28;20032;-68
2021/03/10 08:35:00;;;;;;;24.15;14.10;;;8.00;52.10;;;;;;5034942;28;20033;-68
2021/03/10 08:37:27;;;;;;;24.20;14.05;;;8.10;52.10;;;;;;5017270;28;20068;-68
2021/03/10 08:39:53;;;;;;;26.05;15.32;;;8.20;52.10;;;;;;5035070;28;20018;-69
2021/03/10 08:42:20;;;;;;;25.20;14.80;;;8.20;51.90;;;;;;5012949;28;20037;-68
2021/03/10 08:44:49;;;;;;;26.17;14.57;;;8.30;51.80;;;;;;5034828;28;20425;-68
2021/03/10 08:47:20;;;;;;;28.58;16.92;;;8.40;51.50;;;;;;5035100;28;20051;-68
2021/03/10 08:49:58;;;;;;;24.88;14.85;;;8.40;51.40;;;;;;5034935;28;20025;-68
2021/03/10 08:52:25;;;;;;;26.23;14.50;;;8.50;51.30;;;;;;5025440;28;20480;-68
2021/03/10 08:54:55;;;;;;;26.20;16.00;;;8.50;51.20;;;;;;5015792;28;20348;-68
2021/03/10 08:57:24;;;;;;;27.83;15.27;;;8.50;51.80;;;;;;5015077;28;20033;-68
2021/03/10 08:59:51;;;;;;;23.58;14.98;;;8.60;51.30;;;;;;5014822;28;20046;-68
2021/03/10 09:02:25;;;;;;;25.80;15.73;;;8.60;50.90;;;;;;5014848;28;20026;-68
2021/03/10 09:04:52;;;;;;;22.33;13.95;;;8.60;51.00;;;;;;5014901;28;20396;-68
2021/03/10 09:07:19;;;;;;;21.70;14.23;;;8.70;50.90;;;;;;5023345;28;20030;-68
2021/03/10 09:09:46;;;;;;;28.02;16.08;;;8.70;50.80;;;;;;5032739;28;20029;-68
2021/03/10 09:12:13;;;;;;;28.73;16.15;;;8.70;50.70;;;;;;5033837;28;20018;-68
2021/03/10 09:14:40;;;;;;;29.77;17.13;;;8.70;50.60;;;;;;5034348;28;20029;-68
2021/03/10 09:17:08;;;;;;;33.88;17.45;;;8.70;50.60;;;;;;5034386;28;20056;-68
2021/03/10 09:19:35;;;;;;;34.50;17.17;;;8.80;50.80;;;;;;5033093;28;20017;-68
2021/03/10 09:22:18;;;;;;;38.33;22.52;;;8.80;50.90;;;;;;5033217;28;20104;-68
2021/03/10 09:24:50;;;;;;;47.58;25.77;;;8.80;51.00;;;;;;5034486;28;20025;-68
2021/03/10 09:27:21;;;;;;;35.38;20.77;;;8.80;50.90;;;;;;5019350;28;20036;-68
2021/03/10 09:29:47;;;;;;;32.42;18.65;;;8.80;50.90;;;;;;5014502;28;20029;-68
2021/03/10 09:32:13;;;;;;;29.23;17.20;;;8.80;50.70;;;;;;5016716;28;20022;-68
2021/03/10 09:34:39;;;;;;;33.05;17.40;;;8.80;50.50;;;;;;5034394;28;20033;-68
2021/03/10 09:37:14;;;;;;;25.73;15.07;;;8.70;50.50;;;;;;5034138;28;20525;-68
2021/03/10 09:39:48;;;;;;;28.80;15.45;;;8.80;50.60;;;;;;5033331;28;20356;-68
2021/03/10 09:42:15;;;;;;;28.08;15.95;;;8.70;50.90;;;;;;5034028;28;20467;-69
2021/03/10 09:44:51;;;;;;;28.75;17.38;;;8.70;51.10;;;;;;5027945;28;20064;-68
2021/03/10 09:47:21;;;;;;;26.23;15.82;;;8.70;51.50;;;;;;5031189;28;20533;-68
2021/03/10 09:49:55;;;;;;;24.45;15.02;;;8.80;51.50;;;;;;5030942;28;20038;-68
2021/03/10 09:52:38;;;;;;;32.22;17.98;;;8.80;51.60;;;;;;5015377;28;20036;-68
2021/03/10 09:55:08;;;;;;;32.97;18.30;;;8.80;51.70;;;;;;5033259;28;20034;-68
2021/03/10 09:57:34;;;;;;;29.20;17.23;;;8.90;51.80;;;;;;5032202;28;20021;-69
2021/03/10 10:00:00;;;;;;;27.00;16.38;;;9.00;52.30;;;;;;5032834;28;20119;-69
2021/03/10 10:02:29;;;;;;;35.60;19.33;;;9.10;52.20;;;;;;5033736;28;20030;-69
2021/03/10 10:05:00;;;;;;;32.05;18.60;;;9.20;51.90;;;;;;5033580;28;20028;-69
2021/03/10 10:07:28;;;;;;;35.65;18.88;;;9.30;51.50;;;;;;5033669;28;20017;-68
2021/03/10 10:09:54;;;;;;;39.30;19.02;;;9.30;51.30;;;;;;5033694;28;20026;-69
2021/03/10 10:12:21;;;;;;;31.33;16.83;;;9.40;51.30;;;;;;5033611;28;20482;-69
2021/03/10 10:14:48;;;;;;;37.15;19.38;;;9.40;51.30;;;;;;5033446;28;20104;-69
2021/03/10 10:17:14;;;;;;;38.55;20.00;;;9.50;51.40;;;;;;5030095;28;20026;-69
2021/03/10 10:19:41;;;;;;;32.78;17.58;;;9.50;51.40;;;;;;4996036;28;20124;-69
2021/03/10 10:22:07;;;;;;;33.08;18.95;;;9.60;51.40;;;;;;5013621;28;20065;-70
2021/03/10 10:24:33;;;;;;;40.03;21.75;;;9.60;51.30;;;;;;5013544;28;20095;-67
2021/03/10 10:26:59;;;;;;;39.65;20.60;;;9.60;51.20;;;;;;5025209;28;20025;-68
2021/03/10 10:29:24;;;;;;;28.80;17.00;;;9.60;51.10;;;;;;5031439;28;20120;-69
2021/03/10 10:31:50;;;;;;;34.97;19.05;;;9.60;51.10;;;;;;5032454;28;20045;-69
2021/03/10 10:34:16;;;;;;;33.47;19.15;;;9.70;51.40;;;;;;5028191;28;20036;-68
2021/03/10 10:36:42;;;;;;;34.22;20.20;;;9.80;51.40;;;;;;5032553;28;20028;-68
2021/03/10 10:39:08;;;;;;;39.78;20.90;;;9.90;51.30;;;;;;5032109;28;20108;-68
2021/03/10 10:41:34;;;;;;;34.42;19.27;;;9.90;51.10;;;;;;5015065;28;20140;-68
2021/03/10 10:44:00;;;;;;;36.63;20.13;;;9.90;50.80;;;;;;5032935;28;20108;-68
2021/03/10 10:46:25;;;;;;;36.80;20.50;;;10.00;50.80;;;;;;5032157;28;20033;-69
2021/03/10 10:48:51;;;;;;;38.65;21.23;;;10.00;50.80;;;;;;5032836;28;20155;-69
2021/03/10 10:51:19;;;;;;;35.00;19.52;;;10.10;50.80;;;;;;5032824;28;20017;-69
2021/03/10 10:53:45;;;;;;;38.47;19.73;;;10.10;50.70;;;;;;5032283;28;20025;-70
2021/03/10 10:56:11;;;;;;;32.88;20.60;;;10.10;50.80;;;;;;5014737;28;20024;-70
2021/03/10 10:58:37;;;;;;;38.88;23.27;;;10.10;50.90;;;;;;5029757;28;20025;-68
2021/03/10 11:01:03;;;;;;;35.25;20.90;;;10.20;50.80;;;;;;5030818;28;20053;-68
2021/03/10 11:03:29;;;;;;;38.75;23.35;;;10.20;51.00;;;;;;5031424;28;20083;-67
2021/03/10 11:05:56;;;;;;;38.33;20.85;;;10.30;51.10;;;;;;5032943;28;20030;-69
2021/03/10 11:08:21;;;;;;;32.85;19.63;;;10.30;51.10;;;;;;5033236;28;20108;-68
2021/03/10 11:10:47;;;;;;;41.75;23.55;;;10.50;51.30;;;;;;5033510;28;20093;-69
2021/03/10 11:13:13;;;;;;;34.35;21.00;;;10.60;51.10;;;;;;5032583;28;20455;-68
2021/03/10 11:15:38;;;;;;;34.40;21.05;;;10.70;50.90;;;;;;5026525;28;20029;-68
2021/03/10 11:18:04;;;;;;;33.63;21.20;;;10.80;50.60;;;;;;5030608;28;20027;-68
2021/03/10 11:20:30;;;;;;;29.98;17.73;;;10.90;50.30;;;;;;5032738;28;20025;-68
2021/03/10 11:22:56;;;;;;;34.65;21.45;;;10.90;50.00;;;;;;5033370;28;20021;-69
2021/03/10 11:25:22;;;;;;;31.05;20.98;;;11.00;50.10;;;;;;5032463;28;20045;-69
2021/03/10 11:27:47;;;;;;;36.72;21.05;;;11.00;50.00;;;;;;5031928;28;20481;-69
2021/03/10 11:30:14;;;;;;;36.97;22.80;;;11.00;49.80;;;;;;5033315;28;20498;-69
2021/03/10 11:32:39;;;;;;;37.42;21.83;;;10.90;49.60;;;;;;5034549;28;20471;-69
2021/03/10 11:35:07;;;;;;;50.03;23.50;;;10.90;49.70;;;;;;5038759;28;20104;-69
2021/03/10 11:37:33;;;;;;;39.22;24.70;;;10.80;49.70;;;;;;5031480;28;20471;-69
2021/03/10 11:39:59;;;;;;;47.00;24.88;;;10.80;49.90;;;;;;5031638;28;20112;-69
2021/03/10 11:42:25;;;;;;;41.42;26.90;;;10.70;50.30;;;;;;5016782;28;20044;-69
2021/03/10 11:44:52;;;;;;;51.03;28.40;;;10.60;50.60;;;;;;5031640;28;20038;-69
2021/03/10 11:47:18;;;;;;;43.83;26.15;;;10.70;50.90;;;;;;5015346;28;20521;-69
2021/03/10 11:49:43;;;;;;;41.83;25.50;;;10.70;51.20;;;;;;5031267;28;20041;-69
2021/03/10 11:52:09;;;;;;;42.13;25.65;;;10.80;51.70;;;;;;5031180;28;20025;-69
2021/03/10 11:54:35;;;;;;;35.75;23.30;;;11.00;51.80;;;;;;5032384;28;20048;-69
2021/03/10 11:57:01;;;;;;;38.38;23.73;;;11.20;51.70;;;;;;5014308;28;20036;-70
2021/03/10 11:59:26;;;;;;;35.20;23.13;;;11.50;51.60;;;;;;5039266;28;20486;-69
2021/03/10 12:01:52;;;;;;;33.58;22.13;;;11.70;51.40;;;;;;5035479;28;20037;-69
2021/03/10 12:04:18;;;;;;;36.75;23.70;;;11.90;51.00;;;;;;5033619;28;20088;-70
2021/03/10 12:06:44;;;;;;;37.28;22.17;;;12.10;50.50;;;;;;5032320;28;20033;-69
2021/03/10 12:09:10;;;;;;;31.83;20.35;;;12.20;50.20;;;;;;5031961;28;20022;-69
2021/03/10 12:11:36;;;;;;;30.27;19.20;;;12.40;50.00;;;;;;5031368;28;20014;-69
2021/03/10 12:14:01;;;;;;;35.33;21.33;;;12.60;50.10;;;;;;5033192;28;20379;-69
2021/03/10 12:16:27;;;;;;;32.13;20.45;;;12.80;49.80;;;;;;5031148;28;20061;-69
2021/03/10 12:18:53;;;;;;;30.58;21.05;;;12.90;49.30;;;;;;5030932;28;20029;-69
2021/03/10 12:21:19;;;;;;;30.35;20.05;;;13.10;49.00;;;;;;5030764;28;20033;-69
2021/03/10 12:23:45;;;;;;;30.23;19.58;;;13.20;48.30;;;;;;5031686;28;20041;-69
2021/03/10 12:26:10;;;;;;;27.75;18.80;;;13.30;48.10;;;;;;5031962;28;20109;-69
2021/03/10 12:28:36;;;;;;;27.95;19.17;;;13.50;48.00;;;;;;5032198;28;20037;-69
2021/03/10 12:31:02;;;;;;;26.42;17.67;;;13.50;47.70;;;;;;5031794;28;20378;-69
2021/03/10 12:33:28;;;;;;;26.38;18.08;;;13.60;47.90;;;;;;5035475;28;20476;-69
2021/03/10 12:35:54;;;;;;;25.60;18.15;;;13.70;47.80;;;;;;5032386;28;20071;-69
2021/03/10 12:38:20;;;;;;;25.73;17.50;;;13.80;47.60;;;;;;5031526;28;20025;-69
2021/03/10 12:40:45;;;;;;;25.85;17.15;;;13.90;47.30;;;;;;5030749;28;20021;-69